sensor_id;sensor_type;location;lat;lon;timestamp;pressure;altitude;pressure_sealevel;temperature;humidity
44453;BME280;30155;52.164;21.236;2023-03-04T00:04:01;100236.10;;;0.17;78.75
44453;BME280;30155;52.164;21.236;2023-03-04T00:08:55;100222.85;;;0.18;78.53
44453;BME280;30155;52.164;21.236;2023-03-04T00:13:48;100225.59;;;0.19;78.48
44453;BME280;30155;52.164;21.236;2023-03-04T00:18:41;100219.82;;;0.19;78.74
44453;BME280;30155;52.164;21.236;2023-03-04T00:23:34;100217.48;;;0.20;78.55
44453;BME280;30155;52.164;21.236;2023-03-04T00:28:27;100214.67;;;0.22;78.41
44453;BME280;30155;52.164;21.236;2023-03-04T00:33:20;100212.66;;;0.23;78.62
44453;BME280;30155;52.164;21.236;2023-03-04T00:38:12;100211.02;;;0.24;78.59
44453;BME280;30155;52.164;21.236;2023-03-04T00:43:06;100203.20;;;0.24;78.30
44453;BME280;30155;52.164;21.236;2023-03-04T00:47:58;100189.92;;;0.25;78.64
44453;BME280;30155;52.164;21.236;2023-03-04T00:52:51;100179.75;;;0.26;78.54
44453;BME280;30155;52.164;21.236;2023-03-04T00:57:44;100174.96;;;0.25;78.54
44453;BME280;30155;52.164;21.236;2023-03-04T01:02:37;100169.69;;;0.25;78.62
44453;BME280;30155;52.164;21.236;2023-03-04T01:07:29;100163.06;;;0.26;78.78
44453;BME280;30155;52.164;21.236;2023-03-04T01:12:24;100142.95;;;0.26;78.84
44453;BME280;30155;52.164;21.236;2023-03-04T01:17:17;100138.06;;;0.27;78.63
44453;BME280;30155;52.164;21.236;2023-03-04T01:22:10;100122.42;;;0.28;78.73
44453;BME280;30155;52.164;21.236;2023-03-04T01:27:04;100113.62;;;0.30;78.40
44453;BME280;30155;52.164;21.236;2023-03-04T01:31:57;100110.25;;;0.30;78.58
44453;BME280;30155;52.164;21.236;2023-03-04T01:36:50;100097.95;;;0.30;78.43
44453;BME280;30155;52.164;21.236;2023-03-04T01:41:43;100076.02;;;0.31;78.47
44453;BME280;30155;52.164;21.236;2023-03-04T01:46:36;100057.28;;;0.31;78.64
44453;BME280;30155;52.164;21.236;2023-03-04T01:51:29;100043.07;;;0.30;78.71
44453;BME280;30155;52.164;21.236;2023-03-04T01:56:29;100032.66;;;0.30;78.64
44453;BME280;30155;52.164;21.236;2023-03-04T02:01:26;100026.61;;;0.28;78.78
44453;BME280;30155;52.164;21.236;2023-03-04T02:06:18;100030.96;;;0.26;78.63
44453;BME280;30155;52.164;21.236;2023-03-04T02:11:12;100022.25;;;0.26;78.46
44453;BME280;30155;52.164;21.236;2023-03-04T02:16:05;100012.59;;;0.23;78.52
44453;BME280;30155;52.164;21.236;2023-03-04T02:31:27;99997.69;;;0.22;78.45
44453;BME280;30155;52.164;21.236;2023-03-04T02:36:22;99995.31;;;0.22;78.43
44453;BME280;30155;52.164;21.236;2023-03-04T02:41:19;99990.41;;;0.23;78.51
44453;BME280;30155;52.164;21.236;2023-03-04T02:46:13;100002.13;;;0.26;78.51
44453;BME280;30155;52.164;21.236;2023-03-04T02:51:06;99997.84;;;0.29;78.52
44453;BME280;30155;52.164;21.236;2023-03-04T02:55:58;99995.41;;;0.31;78.70
44453;BME280;30155;52.164;21.236;2023-03-04T03:00:54;99992.08;;;0.33;78.79
44453;BME280;30155;52.164;21.236;2023-03-04T03:05:47;99979.59;;;0.36;79.02
44453;BME280;30155;52.164;21.236;2023-03-04T03:10:41;99973.95;;;0.40;79.04
44453;BME280;30155;52.164;21.236;2023-03-04T03:15:35;99967.23;;;0.42;79.03
44453;BME280;30155;52.164;21.236;2023-03-04T03:20:32;99971.14;;;0.46;79.08
44453;BME280;30155;52.164;21.236;2023-03-04T03:25:25;99964.45;;;0.48;78.97
44453;BME280;30155;52.164;21.236;2023-03-04T03:30:18;99956.22;;;0.51;79.07
44453;BME280;30155;52.164;21.236;2023-03-04T03:35:11;99958.58;;;0.54;79.17
44453;BME280;30155;52.164;21.236;2023-03-04T03:40:04;99946.43;;;0.57;79.06
44453;BME280;30155;52.164;21.236;2023-03-04T03:44:57;99944.51;;;0.60;79.35
44453;BME280;30155;52.164;21.236;2023-03-04T03:49:50;99938.49;;;0.63;79.00
44453;BME280;30155;52.164;21.236;2023-03-04T03:54:43;99933.46;;;0.65;79.24
44453;BME280;30155;52.164;21.236;2023-03-04T03:59:35;99929.64;;;0.67;79.07
44453;BME280;30155;52.164;21.236;2023-03-04T04:04:28;99932.34;;;0.70;79.20
44453;BME280;30155;52.164;21.236;2023-03-04T04:09:21;99924.02;;;0.71;79.22
44453;BME280;30155;52.164;21.236;2023-03-04T04:14:13;99918.83;;;0.73;79.31
44453;BME280;30155;52.164;21.236;2023-03-04T04:19:07;99921.31;;;0.75;79.35
44453;BME280;30155;52.164;21.236;2023-03-04T04:23:59;99922.11;;;0.78;79.18
44453;BME280;30155;52.164;21.236;2023-03-04T04:28:52;99913.70;;;0.81;79.42
44453;BME280;30155;52.164;21.236;2023-03-04T04:33:45;99912.77;;;0.83;79.14
44453;BME280;30155;52.164;21.236;2023-03-04T04:38:37;99902.13;;;0.86;79.34
44453;BME280;30155;52.164;21.236;2023-03-04T04:43:30;99906.50;;;0.88;79.19
44453;BME280;30155;52.164;21.236;2023-03-04T04:48:23;99905.21;;;0.90;79.31
44453;BME280;30155;52.164;21.236;2023-03-04T04:53:15;99901.02;;;0.92;79.56
44453;BME280;30155;52.164;21.236;2023-03-04T04:58:08;99900.95;;;0.94;79.24
44453;BME280;30155;52.164;21.236;2023-03-04T05:03:01;99894.17;;;0.95;79.24
44453;BME280;30155;52.164;21.236;2023-03-04T05:07:53;99892.73;;;0.97;79.02
44453;BME280;30155;52.164;21.236;2023-03-04T05:12:46;99894.52;;;0.99;79.15
44453;BME280;30155;52.164;21.236;2023-03-04T05:17:40;99891.33;;;1.01;79.14
44453;BME280;30155;52.164;21.236;2023-03-04T05:22:33;99888.70;;;1.03;79.24
44453;BME280;30155;52.164;21.236;2023-03-04T05:27:25;99886.04;;;1.05;78.86
44453;BME280;30155;52.164;21.236;2023-03-04T05:32:18;99882.23;;;1.07;78.93
44453;BME280;30155;52.164;21.236;2023-03-04T05:37:11;99874.62;;;1.09;79.05
44453;BME280;30155;52.164;21.236;2023-03-04T05:42:04;99874.88;;;1.11;79.10
44453;BME280;30155;52.164;21.236;2023-03-04T05:46:56;99870.64;;;1.12;79.00
44453;BME280;30155;52.164;21.236;2023-03-04T05:51:51;99870.89;;;1.14;78.73
44453;BME280;30155;52.164;21.236;2023-03-04T05:56:44;99867.89;;;1.16;78.73
44453;BME280;30155;52.164;21.236;2023-03-04T06:01:37;99871.37;;;1.18;78.65
44453;BME280;30155;52.164;21.236;2023-03-04T06:06:30;99864.77;;;1.19;78.61
44453;BME280;30155;52.164;21.236;2023-03-04T06:11:23;99859.01;;;1.20;78.80
44453;BME280;30155;52.164;21.236;2023-03-04T06:16:15;99850.86;;;1.21;78.85
44453;BME280;30155;52.164;21.236;2023-03-04T06:21:08;99847.35;;;1.23;78.75
44453;BME280;30155;52.164;21.236;2023-03-04T06:26:01;99839.22;;;1.25;79.05
44453;BME280;30155;52.164;21.236;2023-03-04T06:30:55;99835.36;;;1.26;78.85
44453;BME280;30155;52.164;21.236;2023-03-04T06:35:53;99827.23;;;1.28;78.72
44453;BME280;30155;52.164;21.236;2023-03-04T06:40:47;99826.17;;;1.31;79.05
44453;BME280;30155;52.164;21.236;2023-03-04T06:45:39;99827.98;;;1.34;78.90
44453;BME280;30155;52.164;21.236;2023-03-04T06:50:32;99834.77;;;1.37;78.85
44453;BME280;30155;52.164;21.236;2023-03-04T06:55:25;99837.45;;;1.40;79.08
44453;BME280;30155;52.164;21.236;2023-03-04T07:00:18;99834.34;;;1.43;79.02
44453;BME280;30155;52.164;21.236;2023-03-04T07:05:10;99831.99;;;1.44;78.88
44453;BME280;30155;52.164;21.236;2023-03-04T07:10:03;99828.50;;;1.47;78.93
44453;BME280;30155;52.164;21.236;2023-03-04T07:14:56;99832.39;;;1.50;78.68
44453;BME280;30155;52.164;21.236;2023-03-04T07:19:49;99829.29;;;1.54;78.54
44453;BME280;30155;52.164;21.236;2023-03-04T07:24:42;99829.33;;;1.60;78.37
44453;BME280;30155;52.164;21.236;2023-03-04T07:29:35;99824.73;;;1.64;78.32
44453;BME280;30155;52.164;21.236;2023-03-04T07:34:27;99815.66;;;1.68;78.45
44453;BME280;30155;52.164;21.236;2023-03-04T07:39:20;99814.04;;;1.71;78.32
44453;BME280;30155;52.164;21.236;2023-03-04T07:44:13;99808.41;;;1.76;78.19
44453;BME280;30155;52.164;21.236;2023-03-04T07:49:06;99810.20;;;1.77;78.29
44453;BME280;30155;52.164;21.236;2023-03-04T07:53:59;99811.07;;;1.78;78.28
44453;BME280;30155;52.164;21.236;2023-03-04T07:58:53;99804.67;;;1.81;78.11
44453;BME280;30155;52.164;21.236;2023-03-04T08:03:47;99798.83;;;1.84;78.12
44453;BME280;30155;52.164;21.236;2023-03-04T08:08:40;99793.67;;;1.88;77.66
44453;BME280;30155;52.164;21.236;2023-03-04T08:13:34;99788.77;;;1.95;77.70
44453;BME280;30155;52.164;21.236;2023-03-04T08:18:27;99783.49;;;2.00;77.50
44453;BME280;30155;52.164;21.236;2023-03-04T08:23:19;99779.33;;;2.03;77.15
44453;BME280;30155;52.164;21.236;2023-03-04T08:28:13;99776.63;;;2.08;77.48
44453;BME280;30155;52.164;21.236;2023-03-04T08:33:06;99776.33;;;2.14;77.05
44453;BME280;30155;52.164;21.236;2023-03-04T08:37:59;99781.08;;;2.18;77.01
44453;BME280;30155;52.164;21.236;2023-03-04T08:42:53;99779.29;;;2.20;76.72
44453;BME280;30155;52.164;21.236;2023-03-04T08:47:45;99772.66;;;2.22;76.87
44453;BME280;30155;52.164;21.236;2023-03-04T08:52:41;99774.56;;;2.27;76.72
44453;BME280;30155;52.164;21.236;2023-03-04T08:57:34;99769.16;;;2.29;76.53
44453;BME280;30155;52.164;21.236;2023-03-04T09:02:26;99772.41;;;2.35;76.43
44453;BME280;30155;52.164;21.236;2023-03-04T09:07:19;99770.80;;;2.37;76.32
44453;BME280;30155;52.164;21.236;2023-03-04T09:12:12;99763.38;;;2.35;76.25
44453;BME280;30155;52.164;21.236;2023-03-04T09:17:05;99762.23;;;2.37;75.96
44453;BME280;30155;52.164;21.236;2023-03-04T09:21:58;99755.90;;;2.42;76.41
44453;BME280;30155;52.164;21.236;2023-03-04T09:26:52;99745.04;;;2.59;76.09
44453;BME280;30155;52.164;21.236;2023-03-04T09:31:45;99735.16;;;2.82;75.56
44453;BME280;30155;52.164;21.236;2023-03-04T09:36:38;99731.92;;;3.04;75.66
44453;BME280;30155;52.164;21.236;2023-03-04T09:41:51;99729.89;;;3.21;75.16
44453;BME280;30155;52.164;21.236;2023-03-04T09:46:47;99731.98;;;3.11;74.84
44453;BME280;30155;52.164;21.236;2023-03-04T09:56:37;99722.07;;;3.00;75.20
44453;BME280;30155;52.164;21.236;2023-03-04T10:01:51;99718.71;;;2.97;75.15
44453;BME280;30155;52.164;21.236;2023-03-04T10:06:46;99723.33;;;2.92;75.30
44453;BME280;30155;52.164;21.236;2023-03-04T10:11:58;99716.52;;;2.88;75.34
44453;BME280;30155;52.164;21.236;2023-03-04T10:16:59;99714.39;;;2.85;75.28
44453;BME280;30155;52.164;21.236;2023-03-04T10:21:55;99711.71;;;2.87;75.62
44453;BME280;30155;52.164;21.236;2023-03-04T10:26:51;99706.15;;;2.90;75.31
44453;BME280;30155;52.164;21.236;2023-03-04T10:31:45;99700.52;;;2.90;75.51
44453;BME280;30155;52.164;21.236;2023-03-04T10:41:44;99684.92;;;2.95;75.58
44453;BME280;30155;52.164;21.236;2023-03-04T10:46:39;99677.05;;;3.07;75.35
44453;BME280;30155;52.164;21.236;2023-03-04T10:51:35;99673.20;;;3.10;75.22
44453;BME280;30155;52.164;21.236;2023-03-04T10:56:40;99665.91;;;3.12;75.11
44453;BME280;30155;52.164;21.236;2023-03-04T11:01:36;99662.77;;;3.16;75.33
44453;BME280;30155;52.164;21.236;2023-03-04T11:06:29;99660.13;;;3.14;75.64
44453;BME280;30155;52.164;21.236;2023-03-04T11:11:41;99661.58;;;3.16;75.98
44453;BME280;30155;52.164;21.236;2023-03-04T11:16:35;99661.27;;;3.17;76.22
44453;BME280;30155;52.164;21.236;2023-03-04T11:21:30;99666.95;;;3.13;76.43
44453;BME280;30155;52.164;21.236;2023-03-04T11:27:00;99663.86;;;3.07;76.56
44453;BME280;30155;52.164;21.236;2023-03-04T11:37:08;99642.96;;;3.18;76.96
44453;BME280;30155;52.164;21.236;2023-03-04T11:47:28;99635.31;;;3.08;77.77
44453;BME280;30155;52.164;21.236;2023-03-04T11:52:34;99623.30;;;3.01;77.75
44453;BME280;30155;52.164;21.236;2023-03-04T12:13:45;99616.56;;;2.93;78.47
44453;BME280;30155;52.164;21.236;2023-03-04T12:29:14;99621.80;;;3.02;78.72
44453;BME280;30155;52.164;21.236;2023-03-04T12:34:37;99624.18;;;3.02;78.82
44453;BME280;30155;52.164;21.236;2023-03-04T12:50:57;99634.20;;;2.94;79.56
44453;BME280;30155;52.164;21.236;2023-03-04T12:55:41;99620.84;;;3.17;79.85
44453;BME280;30155;52.164;21.236;2023-03-04T13:10:27;99615.79;;;4.15;78.16
44453;BME280;30155;52.164;21.236;2023-03-04T13:26:06;99595.59;;;4.45;77.14
44453;BME280;30155;52.164;21.236;2023-03-04T13:31:13;99586.27;;;5.22;77.26
44453;BME280;30155;52.164;21.236;2023-03-04T13:36:26;99585.04;;;6.01;76.22
44453;BME280;30155;52.164;21.236;2023-03-04T13:41:45;99585.25;;;6.46;75.33
44453;BME280;30155;52.164;21.236;2023-03-04T13:46:41;99581.51;;;6.96;74.36
44453;BME280;30155;52.164;21.236;2023-03-04T13:51:44;99572.00;;;6.57;73.23
44453;BME280;30155;52.164;21.236;2023-03-04T13:56:37;99630.02;;;5.70;72.89
44453;BME280;30155;52.164;21.236;2023-03-04T14:01:32;99645.66;;;4.52;72.86
44453;BME280;30155;52.164;21.236;2023-03-04T14:06:28;99633.34;;;3.65;74.26
44453;BME280;30155;52.164;21.236;2023-03-04T14:11:26;99603.60;;;3.31;74.83
44453;BME280;30155;52.164;21.236;2023-03-04T14:16:21;99604.64;;;3.08;75.46
44453;BME280;30155;52.164;21.236;2023-03-04T14:21:15;99600.11;;;2.99;75.85
44453;BME280;30155;52.164;21.236;2023-03-04T14:26:14;99600.38;;;3.14;76.06
44453;BME280;30155;52.164;21.236;2023-03-04T14:31:16;99604.67;;;3.14;76.20
44453;BME280;30155;52.164;21.236;2023-03-04T14:36:15;99596.89;;;3.29;76.56
44453;BME280;30155;52.164;21.236;2023-03-04T14:41:15;99592.83;;;3.50;76.40
44453;BME280;30155;52.164;21.236;2023-03-04T14:46:12;99585.85;;;3.65;75.70
44453;BME280;30155;52.164;21.236;2023-03-04T14:51:28;99599.65;;;3.61;74.45
44453;BME280;30155;52.164;21.236;2023-03-04T14:56:33;99607.03;;;3.49;74.24
44453;BME280;30155;52.164;21.236;2023-03-04T15:01:32;99611.41;;;3.47;73.77
44453;BME280;30155;52.164;21.236;2023-03-04T15:06:28;99620.40;;;3.43;73.33
44453;BME280;30155;52.164;21.236;2023-03-04T15:11:24;99626.37;;;3.49;72.41
44453;BME280;30155;52.164;21.236;2023-03-04T15:16:20;99624.87;;;3.50;71.77
44453;BME280;30155;52.164;21.236;2023-03-04T15:26:13;99631.84;;;3.18;70.97
44453;BME280;30155;52.164;21.236;2023-03-04T15:31:13;99638.56;;;3.02;70.64
44453;BME280;30155;52.164;21.236;2023-03-04T15:36:12;99653.84;;;2.92;70.76
44453;BME280;30155;52.164;21.236;2023-03-04T15:41:09;99662.02;;;2.80;69.08
44453;BME280;30155;52.164;21.236;2023-03-04T15:46:02;99694.84;;;2.73;68.04
44453;BME280;30155;52.164;21.236;2023-03-04T15:50:59;99713.66;;;2.62;67.36
44453;BME280;30155;52.164;21.236;2023-03-04T15:55:53;99734.89;;;2.48;67.56
44453;BME280;30155;52.164;21.236;2023-03-04T16:00:46;99752.37;;;2.29;66.79
44453;BME280;30155;52.164;21.236;2023-03-04T16:05:38;99767.23;;;2.08;66.58
44453;BME280;30155;52.164;21.236;2023-03-04T16:10:32;99774.34;;;1.93;66.35
44453;BME280;30155;52.164;21.236;2023-03-04T16:15:27;99789.03;;;1.78;65.46
44453;BME280;30155;52.164;21.236;2023-03-04T16:20:23;99798.02;;;1.67;65.58
44453;BME280;30155;52.164;21.236;2023-03-04T16:25:17;99812.86;;;1.58;65.00
44453;BME280;30155;52.164;21.236;2023-03-04T16:30:15;99828.93;;;1.49;64.64
44453;BME280;30155;52.164;21.236;2023-03-04T16:35:09;99839.86;;;1.41;63.53
44453;BME280;30155;52.164;21.236;2023-03-04T16:40:03;99847.94;;;1.29;62.77
44453;BME280;30155;52.164;21.236;2023-03-04T16:44:56;99862.73;;;1.19;61.45
44453;BME280;30155;52.164;21.236;2023-03-04T16:49:49;99862.51;;;1.09;61.14
44453;BME280;30155;52.164;21.236;2023-03-04T16:54:44;99869.91;;;1.03;60.25
44453;BME280;30155;52.164;21.236;2023-03-04T16:59:37;99876.48;;;0.96;60.61
44453;BME280;30155;52.164;21.236;2023-03-04T17:04:30;99879.95;;;0.90;60.63
44453;BME280;30155;52.164;21.236;2023-03-04T17:09:22;99889.55;;;0.83;59.30
44453;BME280;30155;52.164;21.236;2023-03-04T17:14:15;99895.59;;;0.72;59.61
44453;BME280;30155;52.164;21.236;2023-03-04T17:19:08;99904.35;;;0.65;59.62
44453;BME280;30155;52.164;21.236;2023-03-04T17:24:01;99915.02;;;0.60;58.91
44453;BME280;30155;52.164;21.236;2023-03-04T17:28:55;99926.80;;;0.53;58.42
44453;BME280;30155;52.164;21.236;2023-03-04T17:33:51;99934.90;;;0.51;58.37
44453;BME280;30155;52.164;21.236;2023-03-04T17:38:44;99937.88;;;0.49;58.11
44453;BME280;30155;52.164;21.236;2023-03-04T17:43:36;99941.52;;;0.47;58.45
44453;BME280;30155;52.164;21.236;2023-03-04T17:48:29;99947.48;;;0.43;58.14
44453;BME280;30155;52.164;21.236;2023-03-04T17:53:22;99957.00;;;0.34;56.80
44453;BME280;30155;52.164;21.236;2023-03-04T17:58:14;99958.73;;;0.27;56.49
44453;BME280;30155;52.164;21.236;2023-03-04T18:03:10;99959.16;;;0.22;56.30
44453;BME280;30155;52.164;21.236;2023-03-04T18:08:04;99969.36;;;0.14;56.69
44453;BME280;30155;52.164;21.236;2023-03-04T18:12:57;99974.87;;;0.04;56.23
44453;BME280;30155;52.164;21.236;2023-03-04T18:17:49;99978.40;;;-0.08;56.76
44453;BME280;30155;52.164;21.236;2023-03-04T18:22:43;99985.64;;;-0.17;56.69
44453;BME280;30155;52.164;21.236;2023-03-04T18:27:36;99981.84;;;-0.25;56.77
44453;BME280;30155;52.164;21.236;2023-03-04T18:32:30;99992.31;;;-0.33;56.17
44453;BME280;30155;52.164;21.236;2023-03-04T18:37:41;100000.63;;;-0.42;56.90
44453;BME280;30155;52.164;21.236;2023-03-04T18:42:35;100011.30;;;-0.49;56.42
44453;BME280;30155;52.164;21.236;2023-03-04T18:47:28;100021.86;;;-0.56;56.80
44453;BME280;30155;52.164;21.236;2023-03-04T18:52:21;100031.20;;;-0.60;56.53
44453;BME280;30155;52.164;21.236;2023-03-04T18:57:13;100031.77;;;-0.62;56.64
44453;BME280;30155;52.164;21.236;2023-03-04T19:02:14;100037.66;;;-0.63;56.31
44453;BME280;30155;52.164;21.236;2023-03-04T19:07:10;100034.39;;;-0.67;56.67
44453;BME280;30155;52.164;21.236;2023-03-04T19:12:04;100034.14;;;-0.69;57.35
44453;BME280;30155;52.164;21.236;2023-03-04T19:16:57;100035.45;;;-0.73;57.13
44453;BME280;30155;52.164;21.236;2023-03-04T19:21:49;100037.35;;;-0.79;57.12
44453;BME280;30155;52.164;21.236;2023-03-04T19:26:42;100043.03;;;-0.88;57.10
44453;BME280;30155;52.164;21.236;2023-03-04T19:31:38;100051.20;;;-0.98;57.46
44453;BME280;30155;52.164;21.236;2023-03-04T19:36:32;100055.48;;;-1.10;57.75
44453;BME280;30155;52.164;21.236;2023-03-04T19:41:24;100061.58;;;-1.21;57.93
44453;BME280;30155;52.164;21.236;2023-03-04T19:46:17;100062.45;;;-1.30;57.83
44453;BME280;30155;52.164;21.236;2023-03-04T19:51:22;100070.27;;;-1.39;57.49
44453;BME280;30155;52.164;21.236;2023-03-04T19:56:17;100071.35;;;-1.44;57.22
44453;BME280;30155;52.164;21.236;2023-03-04T20:01:19;100074.89;;;-1.51;57.37
44453;BME280;30155;52.164;21.236;2023-03-04T20:06:12;100076.55;;;-1.55;57.38
44453;BME280;30155;52.164;21.236;2023-03-04T20:11:06;100072.83;;;-1.61;57.37
44453;BME280;30155;52.164;21.236;2023-03-04T20:15:59;100081.46;;;-1.65;57.47
44453;BME280;30155;52.164;21.236;2023-03-04T20:20:55;100086.37;;;-1.68;57.19
44453;BME280;30155;52.164;21.236;2023-03-04T20:25:47;100085.73;;;-1.70;57.39
44453;BME280;30155;52.164;21.236;2023-03-04T20:30:40;100089.14;;;-1.73;57.42
44453;BME280;30155;52.164;21.236;2023-03-04T20:35:33;100085.12;;;-1.78;57.66
44453;BME280;30155;52.164;21.236;2023-03-04T20:40:30;100089.75;;;-1.83;57.51
44453;BME280;30155;52.164;21.236;2023-03-04T20:45:23;100090.01;;;-1.88;57.48
44453;BME280;30155;52.164;21.236;2023-03-04T20:50:15;100086.27;;;-1.95;57.47
44453;BME280;30155;52.164;21.236;2023-03-04T20:55:09;100083.77;;;-1.99;57.56
44453;BME280;30155;52.164;21.236;2023-03-04T21:00:03;100078.86;;;-2.05;57.62
44453;BME280;30155;52.164;21.236;2023-03-04T21:04:56;100078.40;;;-2.10;57.44
44453;BME280;30155;52.164;21.236;2023-03-04T21:09:48;100076.76;;;-2.12;57.63
44453;BME280;30155;52.164;21.236;2023-03-04T21:14:41;100082.38;;;-2.15;57.67
44453;BME280;30155;52.164;21.236;2023-03-04T21:19:38;100082.45;;;-2.19;57.74
44453;BME280;30155;52.164;21.236;2023-03-04T21:24:34;100080.48;;;-2.21;57.86
44453;BME280;30155;52.164;21.236;2023-03-04T21:29:29;100080.62;;;-2.24;57.87
44453;BME280;30155;52.164;21.236;2023-03-04T21:34:27;100088.59;;;-2.27;57.71
44453;BME280;30155;52.164;21.236;2023-03-04T21:39:22;100090.42;;;-2.31;57.83
44453;BME280;30155;52.164;21.236;2023-03-04T21:44:16;100089.61;;;-2.34;57.83
44453;BME280;30155;52.164;21.236;2023-03-04T21:49:23;100093.95;;;-2.38;57.93
44453;BME280;30155;52.164;21.236;2023-03-04T21:54:16;100095.25;;;-2.42;57.86
44453;BME280;30155;52.164;21.236;2023-03-04T21:59:11;100097.64;;;-2.44;57.67
44453;BME280;30155;52.164;21.236;2023-03-04T22:04:04;100095.20;;;-2.48;57.67
44453;BME280;30155;52.164;21.236;2023-03-04T22:08:57;100094.90;;;-2.51;57.51
44453;BME280;30155;52.164;21.236;2023-03-04T22:13:54;100098.20;;;-2.52;57.71
44453;BME280;30155;52.164;21.236;2023-03-04T22:18:47;100101.75;;;-2.55;57.76
44453;BME280;30155;52.164;21.236;2023-03-04T22:23:40;100098.70;;;-2.61;57.56
44453;BME280;30155;52.164;21.236;2023-03-04T22:28:34;100094.70;;;-2.65;57.51
44453;BME280;30155;52.164;21.236;2023-03-04T22:33:28;100095.07;;;-2.71;57.92
44453;BME280;30155;52.164;21.236;2023-03-04T22:38:27;100094.36;;;-2.77;57.85
44453;BME280;30155;52.164;21.236;2023-03-04T22:43:20;100092.09;;;-2.84;58.10
44453;BME280;30155;52.164;21.236;2023-03-04T22:48:16;100093.51;;;-2.88;58.06
44453;BME280;30155;52.164;21.236;2023-03-04T22:53:17;100090.45;;;-2.91;58.27
44453;BME280;30155;52.164;21.236;2023-03-04T22:58:18;100093.05;;;-2.93;58.26
44453;BME280;30155;52.164;21.236;2023-03-04T23:03:23;100094.88;;;-2.93;58.08
44453;BME280;30155;52.164;21.236;2023-03-04T23:08:47;100099.63;;;-2.99;58.42
44453;BME280;30155;52.164;21.236;2023-03-04T23:14:16;100093.71;;;-3.04;58.71
44453;BME280;30155;52.164;21.236;2023-03-04T23:19:21;100094.71;;;-3.13;58.88
44453;BME280;30155;52.164;21.236;2023-03-04T23:24:19;100094.73;;;-3.21;59.06
44453;BME280;30155;52.164;21.236;2023-03-04T23:29:23;100092.34;;;-3.27;59.55
44453;BME280;30155;52.164;21.236;2023-03-04T23:34:35;100089.97;;;-3.33;59.92
44453;BME280;30155;52.164;21.236;2023-03-04T23:39:44;100089.47;;;-3.40;60.23
44453;BME280;30155;52.164;21.236;2023-03-04T23:45:00;100087.33;;;-3.48;60.31
44453;BME280;30155;52.164;21.236;2023-03-04T23:50:08;100089.23;;;-3.55;60.34
44453;BME280;30155;52.164;21.236;2023-03-04T23:55:20;100084.03;;;-3.62;60.47
